sensor_id;sensor_type;location;lat;lon;timestamp;pressure;altitude;pressure_sealevel;temperature;humidity
78411;BME280;67706;51.074;-1.796;2023-02-28T00:00:49;102862.56;;;1.42;79.34
78411;BME280;67706;51.074;-1.796;2023-02-28T00:03:17;102875.59;;;1.50;79.12
78411;BME280;67706;51.074;-1.796;2023-02-28T00:05:45;102863.47;;;1.57;78.81
78411;BME280;67706;51.074;-1.796;2023-02-28T00:08:11;102865.56;;;1.52;78.96
78411;BME280;67706;51.074;-1.796;2023-02-28T00:10:38;102875.50;;;1.51;79.03
78411;BME280;67706;51.074;-1.796;2023-02-28T00:13:06;102870.88;;;1.53;78.49
78411;BME280;67706;51.074;-1.796;2023-02-28T00:15:33;102868.00;;;1.56;78.63
78411;BME280;67706;51.074;-1.796;2023-02-28T00:18:00;102878.22;;;1.51;78.51
78411;BME280;67706;51.074;-1.796;2023-02-28T00:20:27;102868.03;;;1.41;78.74
78411;BME280;67706;51.074;-1.796;2023-02-28T00:22:56;102871.34;;;1.46;78.78
78411;BME280;67706;51.074;-1.796;2023-02-28T00:25:24;102871.88;;;1.37;78.83
78411;BME280;67706;51.074;-1.796;2023-02-28T00:27:52;102876.25;;;1.39;78.92
78411;BME280;67706;51.074;-1.796;2023-02-28T00:30:20;102878.94;;;1.39;78.98
78411;BME280;67706;51.074;-1.796;2023-02-28T00:32:48;102882.31;;;1.43;78.92
78411;BME280;67706;51.074;-1.796;2023-02-28T00:35:14;102878.69;;;1.44;78.25
78411;BME280;67706;51.074;-1.796;2023-02-28T00:37:41;102879.03;;;1.38;78.43
78411;BME280;67706;51.074;-1.796;2023-02-28T00:40:11;102886.88;;;1.42;78.31
78411;BME280;67706;51.074;-1.796;2023-02-28T00:42:38;102883.22;;;1.43;78.07
78411;BME280;67706;51.074;-1.796;2023-02-28T00:45:06;102878.31;;;1.50;77.57
78411;BME280;67706;51.074;-1.796;2023-02-28T00:47:34;102888.44;;;1.46;77.62
78411;BME280;67706;51.074;-1.796;2023-02-28T00:50:01;102875.63;;;1.34;77.19
78411;BME280;67706;51.074;-1.796;2023-02-28T00:52:27;102885.84;;;1.29;77.59
78411;BME280;67706;51.074;-1.796;2023-02-28T00:54:54;102884.09;;;1.28;77.65
78411;BME280;67706;51.074;-1.796;2023-02-28T00:57:22;102890.38;;;1.29;77.26
78411;BME280;67706;51.074;-1.796;2023-02-28T00:59:49;102886.88;;;1.11;77.52
78411;BME280;67706;51.074;-1.796;2023-02-28T01:02:16;102895.44;;;1.04;78.22
78411;BME280;67706;51.074;-1.796;2023-02-28T01:04:45;102897.50;;;0.99;78.03
78411;BME280;67706;51.074;-1.796;2023-02-28T01:07:12;102892.56;;;0.91;78.40
78411;BME280;67706;51.074;-1.796;2023-02-28T01:09:39;102895.00;;;0.96;78.56
78411;BME280;67706;51.074;-1.796;2023-02-28T01:12:07;102898.59;;;0.96;78.61
78411;BME280;67706;51.074;-1.796;2023-02-28T01:14:36;102903.78;;;0.99;78.44
78411;BME280;67706;51.074;-1.796;2023-02-28T01:17:03;102899.19;;;1.01;78.64
78411;BME280;67706;51.074;-1.796;2023-02-28T01:19:29;102896.66;;;0.98;78.90
78411;BME280;67706;51.074;-1.796;2023-02-28T01:21:56;102900.31;;;0.97;78.69
78411;BME280;67706;51.074;-1.796;2023-02-28T01:24:22;102901.72;;;1.04;78.94
78411;BME280;67706;51.074;-1.796;2023-02-28T01:26:49;102900.13;;;1.16;78.47
78411;BME280;67706;51.074;-1.796;2023-02-28T01:29:15;102895.59;;;1.01;79.07
78411;BME280;67706;51.074;-1.796;2023-02-28T01:31:44;102896.31;;;1.04;79.09
78411;BME280;67706;51.074;-1.796;2023-02-28T01:34:10;102896.91;;;1.09;79.03
78411;BME280;67706;51.074;-1.796;2023-02-28T01:36:37;102895.34;;;1.05;79.21
78411;BME280;67706;51.074;-1.796;2023-02-28T01:39:04;102905.38;;;1.03;79.39
78411;BME280;67706;51.074;-1.796;2023-02-28T01:41:32;102903.63;;;1.02;79.41
78411;BME280;67706;51.074;-1.796;2023-02-28T01:44:03;102900.16;;;1.00;79.66
78411;BME280;67706;51.074;-1.796;2023-02-28T01:46:31;102897.88;;;1.08;79.50
78411;BME280;67706;51.074;-1.796;2023-02-28T01:49:03;102900.84;;;1.04;79.52
78411;BME280;67706;51.074;-1.796;2023-02-28T01:51:34;102891.44;;;1.11;79.26
78411;BME280;67706;51.074;-1.796;2023-02-28T01:54:05;102890.66;;;1.09;79.32
78411;BME280;67706;51.074;-1.796;2023-02-28T01:56:43;102897.00;;;0.92;79.66
78411;BME280;67706;51.074;-1.796;2023-02-28T01:59:12;102895.53;;;1.02;79.58
78411;BME280;67706;51.074;-1.796;2023-02-28T02:01:41;102890.38;;;0.98;79.22
78411;BME280;67706;51.074;-1.796;2023-02-28T02:04:10;102904.16;;;0.93;79.82
78411;BME280;67706;51.074;-1.796;2023-02-28T02:06:40;102899.44;;;0.97;79.55
78411;BME280;67706;51.074;-1.796;2023-02-28T02:09:08;102892.03;;;1.00;79.50
78411;BME280;67706;51.074;-1.796;2023-02-28T02:11:35;102895.59;;;1.01;79.44
78411;BME280;67706;51.074;-1.796;2023-02-28T02:14:21;102895.00;;;0.96;79.67
78411;BME280;67706;51.074;-1.796;2023-02-28T02:17:04;102894.31;;;0.92;79.74
78411;BME280;67706;51.074;-1.796;2023-02-28T02:19:57;102891.94;;;0.86;79.85
78411;BME280;67706;51.074;-1.796;2023-02-28T02:22:43;102890.09;;;0.87;79.80
78411;BME280;67706;51.074;-1.796;2023-02-28T02:25:21;102885.56;;;0.87;79.75
78411;BME280;67706;51.074;-1.796;2023-02-28T02:30:54;102890.09;;;0.71;80.20
78411;BME280;67706;51.074;-1.796;2023-02-28T02:33:38;102887.25;;;0.57;80.95
78411;BME280;67706;51.074;-1.796;2023-02-28T02:36:18;102878.47;;;0.53;80.78
78411;BME280;67706;51.074;-1.796;2023-02-28T02:38:50;102877.25;;;0.59;80.63
78411;BME280;67706;51.074;-1.796;2023-02-28T02:41:24;102868.78;;;0.49;81.03
78411;BME280;67706;51.074;-1.796;2023-02-28T02:43:56;102875.84;;;0.52;81.06
78411;BME280;67706;51.074;-1.796;2023-02-28T02:46:29;102874.31;;;0.63;81.05
78411;BME280;67706;51.074;-1.796;2023-02-28T02:48:57;102869.94;;;0.61;80.76
78411;BME280;67706;51.074;-1.796;2023-02-28T02:51:27;102884.03;;;0.50;81.20
78411;BME280;67706;51.074;-1.796;2023-02-28T02:53:59;102879.69;;;0.48;81.61
78411;BME280;67706;51.074;-1.796;2023-02-28T02:56:28;102879.34;;;0.54;81.73
78411;BME280;67706;51.074;-1.796;2023-02-28T02:59:00;102878.22;;;0.58;81.21
78411;BME280;67706;51.074;-1.796;2023-02-28T03:01:31;102882.28;;;0.49;81.45
78411;BME280;67706;51.074;-1.796;2023-02-28T03:04:01;102881.25;;;0.52;81.66
78411;BME280;67706;51.074;-1.796;2023-02-28T03:06:30;102875.13;;;0.48;81.81
78411;BME280;67706;51.074;-1.796;2023-02-28T03:08:57;102876.47;;;0.57;81.52
78411;BME280;67706;51.074;-1.796;2023-02-28T03:11:24;102878.91;;;0.46;82.01
78411;BME280;67706;51.074;-1.796;2023-02-28T03:14:29;102893.44;;;0.43;82.04
78411;BME280;67706;51.074;-1.796;2023-02-28T03:17:30;102887.81;;;0.31;82.10
78411;BME280;67706;51.074;-1.796;2023-02-28T03:20:06;102886.59;;;0.36;81.90
78411;BME280;67706;51.074;-1.796;2023-02-28T03:22:46;102882.41;;;0.31;82.32
78411;BME280;67706;51.074;-1.796;2023-02-28T03:25:21;102885.13;;;0.31;82.31
78411;BME280;67706;51.074;-1.796;2023-02-28T03:27:58;102887.03;;;0.29;82.32
78411;BME280;67706;51.074;-1.796;2023-02-28T03:30:26;102887.41;;;0.21;82.60
78411;BME280;67706;51.074;-1.796;2023-02-28T03:32:58;102888.16;;;0.25;83.19
78411;BME280;67706;51.074;-1.796;2023-02-28T03:35:29;102890.91;;;0.23;83.11
78411;BME280;67706;51.074;-1.796;2023-02-28T03:38:03;102890.75;;;0.26;83.15
78411;BME280;67706;51.074;-1.796;2023-02-28T03:40:33;102890.34;;;0.34;82.63
78411;BME280;67706;51.074;-1.796;2023-02-28T03:43:07;102890.66;;;0.28;82.38
78411;BME280;67706;51.074;-1.796;2023-02-28T03:45:37;102891.78;;;0.24;82.38
78411;BME280;67706;51.074;-1.796;2023-02-28T03:48:09;102890.22;;;0.20;82.47
78411;BME280;67706;51.074;-1.796;2023-02-28T03:50:40;102896.63;;;0.17;82.34
78411;BME280;67706;51.074;-1.796;2023-02-28T03:53:11;102889.66;;;0.13;82.41
78411;BME280;67706;51.074;-1.796;2023-02-28T03:55:44;102890.94;;;0.06;82.81
78411;BME280;67706;51.074;-1.796;2023-02-28T03:58:16;102888.81;;;-0.05;83.30
78411;BME280;67706;51.074;-1.796;2023-02-28T04:00:50;102895.00;;;-0.03;83.34
78411;BME280;67706;51.074;-1.796;2023-02-28T04:03:21;102894.25;;;-0.06;83.31
78411;BME280;67706;51.074;-1.796;2023-02-28T04:05:51;102891.50;;;-0.05;83.47
78411;BME280;67706;51.074;-1.796;2023-02-28T04:08:19;102876.91;;;-0.01;83.50
78411;BME280;67706;51.074;-1.796;2023-02-28T04:10:54;102865.69;;;0.07;83.34
78411;BME280;67706;51.074;-1.796;2023-02-28T04:13:22;102881.56;;;-0.04;83.66
78411;BME280;67706;51.074;-1.796;2023-02-28T04:15:49;102885.56;;;-0.11;83.95
78411;BME280;67706;51.074;-1.796;2023-02-28T04:18:16;102874.69;;;-0.10;83.75
78411;BME280;67706;51.074;-1.796;2023-02-28T04:20:42;102865.25;;;-0.18;84.21
78411;BME280;67706;51.074;-1.796;2023-02-28T04:23:09;102873.00;;;-0.12;84.36
78411;BME280;67706;51.074;-1.796;2023-02-28T04:25:37;102879.28;;;-0.12;84.42
78411;BME280;67706;51.074;-1.796;2023-02-28T04:28:05;102881.44;;;-0.01;84.07
78411;BME280;67706;51.074;-1.796;2023-02-28T04:30:32;102886.19;;;-0.06;83.91
78411;BME280;67706;51.074;-1.796;2023-02-28T04:32:59;102884.53;;;-0.09;84.06
78411;BME280;67706;51.074;-1.796;2023-02-28T04:35:26;102882.78;;;-0.10;84.13
78411;BME280;67706;51.074;-1.796;2023-02-28T04:37:53;102877.69;;;-0.16;84.34
78411;BME280;67706;51.074;-1.796;2023-02-28T04:40:19;102888.16;;;-0.10;84.00
78411;BME280;67706;51.074;-1.796;2023-02-28T04:42:47;102891.03;;;-0.13;84.23
78411;BME280;67706;51.074;-1.796;2023-02-28T04:45:14;102891.88;;;-0.12;84.11
78411;BME280;67706;51.074;-1.796;2023-02-28T04:47:42;102896.72;;;-0.19;84.25
78411;BME280;67706;51.074;-1.796;2023-02-28T04:50:10;102901.31;;;-0.21;84.32
78411;BME280;67706;51.074;-1.796;2023-02-28T04:52:36;102897.69;;;-0.20;84.80
78411;BME280;67706;51.074;-1.796;2023-02-28T04:55:04;102888.81;;;-0.22;84.47
78411;BME280;67706;51.074;-1.796;2023-02-28T04:57:31;102906.50;;;-0.16;84.52
78411;BME280;67706;51.074;-1.796;2023-02-28T04:59:59;102903.97;;;-0.19;84.52
78411;BME280;67706;51.074;-1.796;2023-02-28T05:02:25;102904.59;;;-0.14;84.45
78411;BME280;67706;51.074;-1.796;2023-02-28T05:04:52;102898.50;;;-0.18;84.26
78411;BME280;67706;51.074;-1.796;2023-02-28T05:07:19;102899.50;;;-0.20;84.66
78411;BME280;67706;51.074;-1.796;2023-02-28T05:09:45;102906.72;;;-0.21;84.58
78411;BME280;67706;51.074;-1.796;2023-02-28T05:12:12;102918.63;;;-0.25;84.55
78411;BME280;67706;51.074;-1.796;2023-02-28T05:14:39;102918.06;;;-0.31;85.00
78411;BME280;67706;51.074;-1.796;2023-02-28T05:17:08;102928.47;;;-0.24;85.26
78411;BME280;67706;51.074;-1.796;2023-02-28T05:19:35;102922.84;;;-0.19;85.35
78411;BME280;67706;51.074;-1.796;2023-02-28T05:22:02;102918.81;;;-0.11;85.19
78411;BME280;67706;51.074;-1.796;2023-02-28T05:24:29;102932.03;;;-0.06;85.58
78411;BME280;67706;51.074;-1.796;2023-02-28T05:26:55;102922.44;;;0.06;85.92
78411;BME280;67706;51.074;-1.796;2023-02-28T05:29:22;102919.50;;;0.10;85.64
78411;BME280;67706;51.074;-1.796;2023-02-28T05:31:49;102925.53;;;0.15;85.39
78411;BME280;67706;51.074;-1.796;2023-02-28T05:34:17;102931.81;;;0.16;85.31
78411;BME280;67706;51.074;-1.796;2023-02-28T05:36:43;102933.38;;;0.20;85.09
78411;BME280;67706;51.074;-1.796;2023-02-28T05:39:10;102938.78;;;0.20;85.13
78411;BME280;67706;51.074;-1.796;2023-02-28T05:41:39;102938.97;;;0.17;85.35
78411;BME280;67706;51.074;-1.796;2023-02-28T05:44:06;102944.34;;;0.17;85.39
78411;BME280;67706;51.074;-1.796;2023-02-28T05:46:33;102945.06;;;0.20;85.27
78411;BME280;67706;51.074;-1.796;2023-02-28T05:48:59;102942.28;;;0.22;85.07
78411;BME280;67706;51.074;-1.796;2023-02-28T05:51:27;102940.53;;;0.21;84.84
78411;BME280;67706;51.074;-1.796;2023-02-28T05:53:58;102934.72;;;0.28;84.75
78411;BME280;67706;51.074;-1.796;2023-02-28T05:56:25;102938.00;;;0.18;84.45
78411;BME280;67706;51.074;-1.796;2023-02-28T05:58:51;102944.03;;;0.06;84.89
78411;BME280;67706;51.074;-1.796;2023-02-28T06:01:21;102934.59;;;0.14;84.34
78411;BME280;67706;51.074;-1.796;2023-02-28T06:03:48;102933.06;;;0.26;83.53
78411;BME280;67706;51.074;-1.796;2023-02-28T06:06:15;102925.19;;;0.21;83.56
78411;BME280;67706;51.074;-1.796;2023-02-28T06:08:43;102927.44;;;0.13;83.68
78411;BME280;67706;51.074;-1.796;2023-02-28T06:11:11;102929.56;;;0.07;84.18
78411;BME280;67706;51.074;-1.796;2023-02-28T06:13:37;102943.78;;;-0.07;84.74
78411;BME280;67706;51.074;-1.796;2023-02-28T06:16:05;102926.81;;;-0.09;84.52
78411;BME280;67706;51.074;-1.796;2023-02-28T06:18:31;102939.75;;;0.02;84.63
78411;BME280;67706;51.074;-1.796;2023-02-28T06:20:58;102930.06;;;-0.03;84.59
78411;BME280;67706;51.074;-1.796;2023-02-28T06:23:25;102926.41;;;-0.02;84.23
78411;BME280;67706;51.074;-1.796;2023-02-28T06:25:53;102934.34;;;-0.16;84.61
78411;BME280;67706;51.074;-1.796;2023-02-28T06:28:23;102926.09;;;-0.13;84.39
78411;BME280;67706;51.074;-1.796;2023-02-28T06:30:50;102940.53;;;-0.14;84.12
78411;BME280;67706;51.074;-1.796;2023-02-28T06:33:17;102939.25;;;-0.24;84.61
78411;BME280;67706;51.074;-1.796;2023-02-28T06:35:45;102938.50;;;-0.27;84.47
78411;BME280;67706;51.074;-1.796;2023-02-28T06:38:12;102945.81;;;-0.29;84.08
78411;BME280;67706;51.074;-1.796;2023-02-28T06:40:39;102946.13;;;-0.35;84.51
78411;BME280;67706;51.074;-1.796;2023-02-28T06:43:07;102951.50;;;-0.35;84.49
78411;BME280;67706;51.074;-1.796;2023-02-28T06:45:34;102937.50;;;-0.25;85.24
78411;BME280;67706;51.074;-1.796;2023-02-28T06:48:01;102953.19;;;-0.33;84.48
78411;BME280;67706;51.074;-1.796;2023-02-28T06:50:27;102960.25;;;-0.30;84.37
78411;BME280;67706;51.074;-1.796;2023-02-28T06:52:55;102955.41;;;-0.41;83.97
78411;BME280;67706;51.074;-1.796;2023-02-28T06:55:21;102959.06;;;-0.25;83.62
78411;BME280;67706;51.074;-1.796;2023-02-28T06:57:48;102964.28;;;-0.39;83.80
78411;BME280;67706;51.074;-1.796;2023-02-28T07:00:18;102967.28;;;-0.45;84.19
78411;BME280;67706;51.074;-1.796;2023-02-28T07:02:44;102960.13;;;-0.46;84.17
78411;BME280;67706;51.074;-1.796;2023-02-28T07:05:12;102943.56;;;-0.55;84.28
78411;BME280;67706;51.074;-1.796;2023-02-28T07:07:39;102965.16;;;-0.38;84.63
78411;BME280;67706;51.074;-1.796;2023-02-28T07:10:10;102956.06;;;-0.36;84.51
78411;BME280;67706;51.074;-1.796;2023-02-28T07:12:37;102964.94;;;-0.34;84.60
78411;BME280;67706;51.074;-1.796;2023-02-28T07:15:05;102967.63;;;-0.17;84.16
78411;BME280;67706;51.074;-1.796;2023-02-28T07:17:33;102977.72;;;-0.20;83.93
78411;BME280;67706;51.074;-1.796;2023-02-28T07:20:00;102965.56;;;-0.29;84.42
78411;BME280;67706;51.074;-1.796;2023-02-28T07:22:29;102978.16;;;-0.11;83.91
78411;BME280;67706;51.074;-1.796;2023-02-28T07:24:56;102975.59;;;-0.14;84.05
78411;BME280;67706;51.074;-1.796;2023-02-28T07:27:23;102977.63;;;-0.19;84.19
78411;BME280;67706;51.074;-1.796;2023-02-28T07:29:51;102973.22;;;-0.03;83.73
78411;BME280;67706;51.074;-1.796;2023-02-28T07:32:17;102979.44;;;-0.01;83.84
78411;BME280;67706;51.074;-1.796;2023-02-28T07:34:46;102978.69;;;-0.04;83.75
78411;BME280;67706;51.074;-1.796;2023-02-28T07:37:14;102984.88;;;-0.02;83.72
78411;BME280;67706;51.074;-1.796;2023-02-28T07:39:41;102974.09;;;-0.02;83.92
78411;BME280;67706;51.074;-1.796;2023-02-28T07:42:08;102982.75;;;0.05;83.64
78411;BME280;67706;51.074;-1.796;2023-02-28T07:44:37;102973.31;;;0.13;83.54
78411;BME280;67706;51.074;-1.796;2023-02-28T07:47:06;102976.88;;;0.31;83.25
78411;BME280;67706;51.074;-1.796;2023-02-28T07:49:34;102978.78;;;0.29;83.36
78411;BME280;67706;51.074;-1.796;2023-02-28T07:52:02;102988.06;;;0.23;83.57
78411;BME280;67706;51.074;-1.796;2023-02-28T07:54:29;102981.25;;;0.33;83.46
78411;BME280;67706;51.074;-1.796;2023-02-28T07:56:56;102973.22;;;0.32;83.56
78411;BME280;67706;51.074;-1.796;2023-02-28T07:59:23;102981.53;;;0.44;83.69
78411;BME280;67706;51.074;-1.796;2023-02-28T08:01:49;102980.03;;;0.56;83.87
78411;BME280;67706;51.074;-1.796;2023-02-28T08:04:16;102985.09;;;0.79;85.00
78411;BME280;67706;51.074;-1.796;2023-02-28T08:06:43;102984.75;;;0.85;82.81
78411;BME280;67706;51.074;-1.796;2023-02-28T08:09:11;102992.16;;;0.82;83.01
78411;BME280;67706;51.074;-1.796;2023-02-28T08:11:37;102990.69;;;0.92;82.79
78411;BME280;67706;51.074;-1.796;2023-02-28T08:14:04;102981.72;;;0.91;82.73
78411;BME280;67706;51.074;-1.796;2023-02-28T08:16:31;102990.50;;;0.95;82.83
78411;BME280;67706;51.074;-1.796;2023-02-28T08:18:57;102990.28;;;0.99;82.52
78411;BME280;67706;51.074;-1.796;2023-02-28T08:21:24;102983.56;;;1.06;82.55
78411;BME280;67706;51.074;-1.796;2023-02-28T08:23:51;102986.81;;;1.28;83.00
78411;BME280;67706;51.074;-1.796;2023-02-28T08:26:19;102988.75;;;1.57;81.73
78411;BME280;67706;51.074;-1.796;2023-02-28T08:28:46;102990.00;;;1.68;81.30
78411;BME280;67706;51.074;-1.796;2023-02-28T08:31:15;102983.06;;;1.78;80.71
78411;BME280;67706;51.074;-1.796;2023-02-28T08:33:42;102987.50;;;1.94;80.51
78411;BME280;67706;51.074;-1.796;2023-02-28T08:36:10;102989.53;;;2.20;79.77
78411;BME280;67706;51.074;-1.796;2023-02-28T08:38:37;102982.00;;;2.25;79.16
78411;BME280;67706;51.074;-1.796;2023-02-28T08:41:06;102981.16;;;2.39;79.27
78411;BME280;67706;51.074;-1.796;2023-02-28T08:43:36;102980.72;;;2.47;78.45
78411;BME280;67706;51.074;-1.796;2023-02-28T08:46:04;102975.97;;;2.50;78.44
78411;BME280;67706;51.074;-1.796;2023-02-28T08:48:33;102979.19;;;2.71;79.44
78411;BME280;67706;51.074;-1.796;2023-02-28T08:51:02;102980.34;;;2.81;77.67
78411;BME280;67706;51.074;-1.796;2023-02-28T08:53:29;102975.69;;;2.83;77.77
78411;BME280;67706;51.074;-1.796;2023-02-28T08:55:57;102977.94;;;2.90;77.68
78411;BME280;67706;51.074;-1.796;2023-02-28T08:58:24;102984.75;;;2.97;77.61
78411;BME280;67706;51.074;-1.796;2023-02-28T09:00:53;102981.63;;;3.03;77.71
78411;BME280;67706;51.074;-1.796;2023-02-28T09:03:21;102977.63;;;3.23;77.76
78411;BME280;67706;51.074;-1.796;2023-02-28T09:05:52;102976.94;;;3.34;77.71
78411;BME280;67706;51.074;-1.796;2023-02-28T09:08:19;102982.34;;;3.48;77.44
78411;BME280;67706;51.074;-1.796;2023-02-28T09:10:46;102976.84;;;3.76;76.89
78411;BME280;67706;51.074;-1.796;2023-02-28T09:13:13;102969.53;;;3.90;76.44
78411;BME280;67706;51.074;-1.796;2023-02-28T09:15:39;102971.94;;;3.95;76.80
78411;BME280;67706;51.074;-1.796;2023-02-28T09:18:08;102976.06;;;4.00;77.21
78411;BME280;67706;51.074;-1.796;2023-02-28T09:20:37;102972.16;;;4.04;76.96
78411;BME280;67706;51.074;-1.796;2023-02-28T09:23:04;102967.22;;;4.24;76.45
78411;BME280;67706;51.074;-1.796;2023-02-28T09:25:30;102967.91;;;4.27;76.13
78411;BME280;67706;51.074;-1.796;2023-02-28T09:27:57;102964.09;;;4.42;75.68
78411;BME280;67706;51.074;-1.796;2023-02-28T09:30:24;102961.94;;;4.47;75.63
78411;BME280;67706;51.074;-1.796;2023-02-28T09:32:50;102963.16;;;4.56;75.44
78411;BME280;67706;51.074;-1.796;2023-02-28T09:35:21;102957.28;;;4.74;74.23
78411;BME280;67706;51.074;-1.796;2023-02-28T09:37:49;102960.78;;;4.89;73.04
78411;BME280;67706;51.074;-1.796;2023-02-28T09:40:17;102947.59;;;4.96;72.89
78411;BME280;67706;51.074;-1.796;2023-02-28T09:42:46;102952.81;;;4.99;72.01
78411;BME280;67706;51.074;-1.796;2023-02-28T09:45:22;102959.88;;;5.14;72.01
78411;BME280;67706;51.074;-1.796;2023-02-28T09:47:52;102960.72;;;5.27;72.18
78411;BME280;67706;51.074;-1.796;2023-02-28T09:50:29;102950.13;;;5.35;70.44
78411;BME280;67706;51.074;-1.796;2023-02-28T09:52:58;102953.09;;;5.32;70.58
78411;BME280;67706;51.074;-1.796;2023-02-28T09:55:29;102958.00;;;5.27;70.59
78411;BME280;67706;51.074;-1.796;2023-02-28T09:57:57;102953.75;;;5.23;70.60
78411;BME280;67706;51.074;-1.796;2023-02-28T10:00:30;102955.50;;;5.24;70.21
78411;BME280;67706;51.074;-1.796;2023-02-28T10:03:19;102962.03;;;5.34;70.61
78411;BME280;67706;51.074;-1.796;2023-02-28T10:05:53;102961.16;;;5.33;70.85
78411;BME280;67706;51.074;-1.796;2023-02-28T10:08:25;102966.56;;;5.46;70.71
78411;BME280;67706;51.074;-1.796;2023-02-28T10:10:55;102957.31;;;5.48;69.98
78411;BME280;67706;51.074;-1.796;2023-02-28T10:13:26;102965.22;;;5.51;69.78
78411;BME280;67706;51.074;-1.796;2023-02-28T10:15:58;102959.78;;;5.51;69.97
78411;BME280;67706;51.074;-1.796;2023-02-28T10:18:30;102963.66;;;5.60;70.01
78411;BME280;67706;51.074;-1.796;2023-02-28T10:21:03;102960.81;;;5.61;70.40
78411;BME280;67706;51.074;-1.796;2023-02-28T10:23:34;102958.22;;;5.60;70.44
78411;BME280;67706;51.074;-1.796;2023-02-28T10:26:11;102956.38;;;5.60;69.98
78411;BME280;67706;51.074;-1.796;2023-02-28T10:28:39;102952.56;;;5.63;70.46
78411;BME280;67706;51.074;-1.796;2023-02-28T10:31:08;102950.13;;;5.71;70.28
78411;BME280;67706;51.074;-1.796;2023-02-28T10:33:38;102958.66;;;5.67;69.11
78411;BME280;67706;51.074;-1.796;2023-02-28T10:36:12;102942.72;;;5.73;69.02
78411;BME280;67706;51.074;-1.796;2023-02-28T10:38:42;102942.19;;;5.68;69.37
78411;BME280;67706;51.074;-1.796;2023-02-28T10:41:12;102939.00;;;5.74;69.07
78411;BME280;67706;51.074;-1.796;2023-02-28T10:43:41;102941.34;;;5.91;68.98
78411;BME280;67706;51.074;-1.796;2023-02-28T10:46:14;102935.44;;;5.97;69.16
78411;BME280;67706;51.074;-1.796;2023-02-28T10:49:01;102930.63;;;6.01;68.94
78411;BME280;67706;51.074;-1.796;2023-02-28T10:51:36;102935.91;;;5.91;68.58
78411;BME280;67706;51.074;-1.796;2023-02-28T10:54:04;102930.31;;;6.16;68.41
78411;BME280;67706;51.074;-1.796;2023-02-28T10:56:31;102929.09;;;6.20;68.14
78411;BME280;67706;51.074;-1.796;2023-02-28T10:58:59;102932.81;;;6.19;67.76
78411;BME280;67706;51.074;-1.796;2023-02-28T11:01:36;102934.78;;;6.17;67.65
78411;BME280;67706;51.074;-1.796;2023-02-28T11:04:16;102925.34;;;6.10;67.89
78411;BME280;67706;51.074;-1.796;2023-02-28T11:06:45;102925.88;;;6.15;68.17
78411;BME280;67706;51.074;-1.796;2023-02-28T11:09:19;102935.72;;;6.05;68.40
78411;BME280;67706;51.074;-1.796;2023-02-28T11:11:49;102922.28;;;5.91;68.92
78411;BME280;67706;51.074;-1.796;2023-02-28T11:14:21;102933.72;;;5.96;69.03
78411;BME280;67706;51.074;-1.796;2023-02-28T11:16:49;102927.72;;;5.91;69.13
78411;BME280;67706;51.074;-1.796;2023-02-28T11:19:19;102928.25;;;5.96;68.27
78411;BME280;67706;51.074;-1.796;2023-02-28T11:21:53;102919.97;;;5.98;67.56
78411;BME280;67706;51.074;-1.796;2023-02-28T11:24:22;102929.75;;;6.00;67.64
78411;BME280;67706;51.074;-1.796;2023-02-28T11:26:50;102913.16;;;6.03;67.93
78411;BME280;67706;51.074;-1.796;2023-02-28T11:29:19;102919.00;;;5.99;67.65
78411;BME280;67706;51.074;-1.796;2023-02-28T11:32:03;102920.38;;;6.04;67.72
78411;BME280;67706;51.074;-1.796;2023-02-28T11:34:30;102915.13;;;6.01;67.91
78411;BME280;67706;51.074;-1.796;2023-02-28T11:37:01;102916.63;;;6.05;68.18
78411;BME280;67706;51.074;-1.796;2023-02-28T11:39:30;102918.16;;;6.09;68.09
78411;BME280;67706;51.074;-1.796;2023-02-28T11:42:27;102921.78;;;6.21;67.48
78411;BME280;67706;51.074;-1.796;2023-02-28T11:45:11;102914.75;;;6.29;67.31
78411;BME280;67706;51.074;-1.796;2023-02-28T11:47:45;102914.97;;;6.26;67.11
78411;BME280;67706;51.074;-1.796;2023-02-28T11:50:27;102907.81;;;6.25;66.89
78411;BME280;67706;51.074;-1.796;2023-02-28T11:53:12;102910.75;;;6.22;67.61
78411;BME280;67706;51.074;-1.796;2023-02-28T11:55:43;102905.97;;;6.26;67.54
78411;BME280;67706;51.074;-1.796;2023-02-28T11:58:24;102889.56;;;6.15;68.07
78411;BME280;67706;51.074;-1.796;2023-02-28T12:01:16;102885.25;;;6.23;68.24
78411;BME280;67706;51.074;-1.796;2023-02-28T12:03:53;102882.81;;;6.43;67.75
78411;BME280;67706;51.074;-1.796;2023-02-28T12:06:25;102881.47;;;6.48;67.63
78411;BME280;67706;51.074;-1.796;2023-02-28T12:09:11;102881.72;;;6.45;66.71
78411;BME280;67706;51.074;-1.796;2023-02-28T12:11:48;102885.28;;;6.46;66.28
78411;BME280;67706;51.074;-1.796;2023-02-28T12:14:38;102876.38;;;6.55;65.93
78411;BME280;67706;51.074;-1.796;2023-02-28T12:17:21;102866.97;;;6.59;65.99
78411;BME280;67706;51.074;-1.796;2023-02-28T12:19:58;102860.41;;;6.50;66.40
78411;BME280;67706;51.074;-1.796;2023-02-28T12:22:30;102864.47;;;6.56;66.85
78411;BME280;67706;51.074;-1.796;2023-02-28T12:28:04;102848.91;;;6.58;66.64
78411;BME280;67706;51.074;-1.796;2023-02-28T12:30:33;102836.22;;;6.57;67.08
78411;BME280;67706;51.074;-1.796;2023-02-28T12:33:06;102833.75;;;6.65;66.85
78411;BME280;67706;51.074;-1.796;2023-02-28T12:35:36;102836.63;;;6.63;66.39
78411;BME280;67706;51.074;-1.796;2023-02-28T12:38:06;102846.16;;;6.80;66.24
78411;BME280;67706;51.074;-1.796;2023-02-28T12:40:43;102848.28;;;6.76;65.96
78411;BME280;67706;51.074;-1.796;2023-02-28T12:43:13;102840.09;;;6.76;65.99
78411;BME280;67706;51.074;-1.796;2023-02-28T12:45:44;102839.06;;;6.77;65.96
78411;BME280;67706;51.074;-1.796;2023-02-28T12:48:17;102838.47;;;6.74;66.51
78411;BME280;67706;51.074;-1.796;2023-02-28T12:50:47;102834.72;;;6.75;66.06
78411;BME280;67706;51.074;-1.796;2023-02-28T12:53:21;102833.53;;;6.68;66.73
78411;BME280;67706;51.074;-1.796;2023-02-28T12:55:58;102829.41;;;6.73;67.04
78411;BME280;67706;51.074;-1.796;2023-02-28T12:58:33;102822.72;;;6.66;66.90
78411;BME280;67706;51.074;-1.796;2023-02-28T13:01:30;102832.50;;;6.69;67.16
78411;BME280;67706;51.074;-1.796;2023-02-28T13:04:24;102827.69;;;6.61;67.57
78411;BME280;67706;51.074;-1.796;2023-02-28T13:07:04;102809.34;;;6.74;66.78
78411;BME280;67706;51.074;-1.796;2023-02-28T13:09:34;102798.81;;;6.70;66.49